Time;durP1;ratioP1;P1;durP2;ratioP2;P2;SDS_P1;SDS_P2;PMS_P1;PMS_P2;Temp;Humidity;BMP_temperature;BMP_pressure;BME280_temperature;BME280_humidity;BME280_pressure;Samples;Min_cycle;Max_cycle;Signal;HPM_P1;HPM_P2
2022/09/27 00:02:24;;;;;;;4.45;2.83;;;;;;;;;;5014381;28;20035;-67
2022/09/27 00:04:49;;;;;;;2.92;2.72;;;;;;;;;;5012911;28;20033;-67
2022/09/27 00:07:15;;;;;;;2.92;2.72;;;;;;;;;;5014226;28;20025;-66
2022/09/27 00:09:40;;;;;;;3.05;2.70;;;;;;;;;;5014067;28;20109;-67
2022/09/27 00:12:05;;;;;;;3.00;2.55;;;;;;;;;;5014140;28;20120;-67
2022/09/27 00:14:31;;;;;;;3.47;2.90;;;;;;;;;;5014138;28;20489;-67
2022/09/27 00:16:56;;;;;;;2.88;2.63;;;;;;;;;;5014088;28;20549;-66
2022/09/27 00:19:24;;;;;;;3.13;2.50;;;;;;;;;;5014123;28;20025;-66
2022/09/27 00:21:50;;;;;;;2.92;2.70;;;;;;;;;;5016254;28;20029;-66
2022/09/27 00:24:18;;;;;;;2.95;2.65;;;;;;;;;;5033868;28;20079;-66
2022/09/27 00:26:45;;;;;;;2.70;2.50;;;;;;;;;;5033671;28;20029;-66
2022/09/27 00:29:11;;;;;;;2.80;2.50;;;;;;;;;;5033813;28;20025;-65
2022/09/27 00:31:37;;;;;;;2.70;2.50;;;;;;;;;;5033466;28;20160;-66
2022/09/27 00:34:04;;;;;;;2.67;2.47;;;;;;;;;;5033644;28;20079;-66
2022/09/27 00:36:30;;;;;;;2.80;2.50;;;;;;;;;;5033131;28;20042;-67
2022/09/27 00:38:58;;;;;;;2.95;2.65;;;;;;;;;;5033391;28;20107;-66
2022/09/27 00:41:31;;;;;;;2.95;2.67;;;;;;;;;;5033757;28;20393;-67
2022/09/27 00:44:03;;;;;;;3.00;2.78;;;;;;;;;;5033557;28;20032;-67
2022/09/27 00:46:41;;;;;;;3.00;2.65;;;;;;;;;;5033380;28;20029;-67
2022/09/27 00:49:22;;;;;;;2.75;2.55;;;;;;;;;;5019531;28;20026;-67
2022/09/27 00:51:53;;;;;;;2.63;2.42;;;;;;;;;;5023417;28;20034;-67
2022/09/27 00:54:19;;;;;;;3.13;2.50;;;;;;;;;;5013334;28;20022;-67
2022/09/27 00:56:47;;;;;;;2.92;2.58;;;;;;;;;;5013458;28;20053;-67
2022/09/27 00:59:32;;;;;;;2.60;2.40;;;;;;;;;;5013245;28;20034;-67
2022/09/27 01:01:57;;;;;;;2.58;2.38;;;;;;;;;;5012000;28;20021;-67
2022/09/27 01:04:28;;;;;;;3.50;2.83;;;;;;;;;;5013418;28;20029;-67
2022/09/27 01:06:53;;;;;;;3.00;2.72;;;;;;;;;;5012930;28;20471;-67
2022/09/27 01:09:20;;;;;;;2.83;2.63;;;;;;;;;;5013070;28;20053;-67
2022/09/27 01:12:03;;;;;;;2.88;2.42;;;;;;;;;;5013120;28;20496;-67
2022/09/27 01:14:50;;;;;;;3.03;2.65;;;;;;;;;;5012970;28;20022;-67
2022/09/27 01:17:33;;;;;;;2.90;2.70;;;;;;;;;;5012774;28;20034;-67
2022/09/27 01:20:14;;;;;;;3.20;2.90;;;;;;;;;;5012935;28;20354;-67
2022/09/27 01:23:04;;;;;;;2.88;2.67;;;;;;;;;;5012842;28;20034;-67
2022/09/27 01:25:41;;;;;;;4.70;2.80;;;;;;;;;;5013045;28;20080;-67
2022/09/27 01:28:28;;;;;;;3.15;2.70;;;;;;;;;;5012833;28;20113;-67
2022/09/27 01:30:59;;;;;;;5.20;2.90;;;;;;;;;;5012690;28;20026;-67
2022/09/27 01:33:48;;;;;;;3.22;2.90;;;;;;;;;;5012614;28;20026;-67
2022/09/27 01:36:17;;;;;;;3.13;2.83;;;;;;;;;;5012099;28;20474;-67
2022/09/27 01:39:04;;;;;;;3.33;2.83;;;;;;;;;;5011371;28;20037;-66
2022/09/27 01:42:03;;;;;;;3.78;3.00;;;;;;;;;;5012131;28;20057;-66
2022/09/27 01:44:46;;;;;;;3.70;3.30;;;;;;;;;;5011767;28;20029;-67
2022/09/27 01:47:21;;;;;;;2.97;2.78;;;;;;;;;;5012454;28;20034;-67
2022/09/27 01:49:56;;;;;;;4.43;3.42;;;;;;;;;;5012649;28;20079;-67
2022/09/27 01:52:30;;;;;;;2.97;2.70;;;;;;;;;;5012607;28;20121;-67
2022/09/27 01:54:59;;;;;;;3.40;3.00;;;;;;;;;;5012611;28;20022;-67
2022/09/27 01:57:32;;;;;;;3.13;2.83;;;;;;;;;;5012542;28;20065;-67
2022/09/27 02:00:08;;;;;;;3.08;2.78;;;;;;;;;;5012548;28;20034;-67
2022/09/27 02:02:39;;;;;;;3.63;3.20;;;;;;;;;;5012560;28;20037;-67
2022/09/27 02:05:07;;;;;;;3.50;3.20;;;;;;;;;;5012789;28;20117;-66
2022/09/27 02:07:46;;;;;;;3.47;3.08;;;;;;;;;;5012669;28;20037;-67
2022/09/27 02:10:16;;;;;;;3.88;3.20;;;;;;;;;;5012481;28;20041;-66
2022/09/27 02:12:56;;;;;;;3.83;3.33;;;;;;;;;;5043598;28;20041;-67
2022/09/27 02:15:25;;;;;;;3.55;3.25;;;;;;;;;;5012437;28;20071;-66
2022/09/27 02:17:59;;;;;;;3.25;2.90;;;;;;;;;;5012225;28;20038;-67
2022/09/27 02:20:31;;;;;;;4.43;3.10;;;;;;;;;;5015939;28;20041;-66
2022/09/27 02:23:25;;;;;;;3.42;3.08;;;;;;;;;;5016177;28;20014;-67
2022/09/27 02:26:09;;;;;;;3.30;3.00;;;;;;;;;;5015907;28;20040;-67
2022/09/27 02:28:39;;;;;;;4.15;2.95;;;;;;;;;;5016068;28;20026;-66
2022/09/27 02:31:04;;;;;;;;;;;;;;;;;;5016596;28;20033;-67
2022/09/27 02:33:41;;;;;;;3.65;3.15;;;;;;;;;;5015928;28;19914;-66
2022/09/27 02:36:08;;;;;;;3.38;3.08;;;;;;;;;;5015582;28;20022;-66
2022/09/27 02:38:33;;;;;;;3.03;2.80;;;;;;;;;;5015845;28;20030;-67
2022/09/27 02:40:59;;;;;;;3.28;2.97;;;;;;;;;;5015805;28;20037;-67
2022/09/27 02:43:28;;;;;;;3.10;2.80;;;;;;;;;;5015865;28;20110;-67
2022/09/27 02:46:10;;;;;;;3.67;3.10;;;;;;;;;;5015650;28;20478;-67
2022/09/27 02:48:46;;;;;;;3.72;2.80;;;;;;;;;;5015488;28;20480;-67
2022/09/27 02:51:16;;;;;;;3.47;3.05;;;;;;;;;;5015559;28;20024;-66
2022/09/27 02:53:59;;;;;;;3.70;3.00;;;;;;;;;;5015373;28;20507;-67
2022/09/27 02:56:41;;;;;;;3.20;2.90;;;;;;;;;;5015348;28;20019;-67
2022/09/27 02:59:48;;;;;;;3.88;3.30;;;;;;;;;;5015425;28;20473;-66
2022/09/27 03:02:33;;;;;;;3.20;2.90;;;;;;;;;;5013043;28;20100;-67
2022/09/27 03:05:03;;;;;;;3.22;3.03;;;;;;;;;;5012508;28;20493;-67
2022/09/27 03:07:29;;;;;;;3.55;3.20;;;;;;;;;;5014299;28;20045;-66
2022/09/27 03:09:55;;;;;;;3.10;2.80;;;;;;;;;;5015465;28;20052;-67
2022/09/27 03:12:27;;;;;;;3.30;3.00;;;;;;;;;;5015210;28;20117;-66
2022/09/27 03:14:57;;;;;;;3.33;3.03;;;;;;;;;;5015184;28;20025;-66
2022/09/27 03:17:23;;;;;;;3.58;3.28;;;;;;;;;;5015291;28;20030;-66
2022/09/27 03:19:48;;;;;;;3.97;3.38;;;;;;;;;;5015271;28;20041;-66
2022/09/27 03:22:14;;;;;;;3.28;2.97;;;;;;;;;;5015228;28;20049;-66
2022/09/27 03:24:40;;;;;;;3.20;2.90;;;;;;;;;;5015169;28;20022;-67
2022/09/27 03:27:06;;;;;;;3.30;3.00;;;;;;;;;;5014950;28;20461;-66
2022/09/27 03:29:31;;;;;;;3.10;2.80;;;;;;;;;;5014357;28;20022;-66
2022/09/27 03:31:57;;;;;;;3.28;2.97;;;;;;;;;;5014845;28;20116;-66
2022/09/27 03:34:23;;;;;;;3.47;3.10;;;;;;;;;;5014694;28;20030;-66
2022/09/27 03:36:48;;;;;;;3.20;2.90;;;;;;;;;;5014439;28;20061;-67
2022/09/27 03:39:13;;;;;;;3.50;3.20;;;;;;;;;;5014604;28;20022;-66
2022/09/27 03:41:40;;;;;;;3.25;2.95;;;;;;;;;;5014559;28;20359;-66
2022/09/27 03:44:05;;;;;;;3.50;3.13;;;;;;;;;;5014748;28;20026;-66
2022/09/27 03:46:30;;;;;;;3.10;2.80;;;;;;;;;;5014426;28;20185;-66
2022/09/27 03:48:56;;;;;;;3.05;2.75;;;;;;;;;;5014665;28;20021;-67
2022/09/27 03:51:21;;;;;;;3.33;3.03;;;;;;;;;;5014628;28;20553;-66
2022/09/27 03:53:48;;;;;;;3.33;3.00;;;;;;;;;;5014668;28;20630;-66
2022/09/27 03:56:13;;;;;;;4.82;2.97;;;;;;;;;;5014496;28;20025;-66
2022/09/27 03:58:39;;;;;;;3.55;2.90;;;;;;;;;;5014266;28;20414;-66
2022/09/27 04:01:04;;;;;;;3.00;2.75;;;;;;;;;;5014543;28;20084;-67
2022/09/27 04:03:30;;;;;;;3.20;2.88;;;;;;;;;;5014064;28;20034;-67
2022/09/27 04:05:55;;;;;;;3.05;2.75;;;;;;;;;;5014244;28;20032;-67
2022/09/27 04:08:21;;;;;;;3.20;2.90;;;;;;;;;;5014023;28;20036;-67
2022/09/27 04:10:47;;;;;;;3.22;2.95;;;;;;;;;;5014014;28;20467;-66
2022/09/27 04:13:13;;;;;;;2.95;2.70;;;;;;;;;;5045832;28;20048;-66
2022/09/27 04:15:38;;;;;;;2.80;2.60;;;;;;;;;;5014099;28;20029;-66
2022/09/27 04:18:04;;;;;;;3.08;2.78;;;;;;;;;;5013762;28;20033;-66
2022/09/27 04:20:30;;;;;;;3.65;3.35;;;;;;;;;;5045672;28;20054;-66
2022/09/27 04:22:55;;;;;;;2.80;2.60;;;;;;;;;;5013773;28;20589;-66
2022/09/27 04:25:21;;;;;;;2.65;2.45;;;;;;;;;;5013752;28;20049;-66
2022/09/27 04:27:47;;;;;;;4.18;2.95;;;;;;;;;;5013727;28;20033;-67
2022/09/27 04:30:13;;;;;;;3.20;2.90;;;;;;;;;;5013570;28;20083;-66
2022/09/27 04:32:43;;;;;;;2.60;2.40;;;;;;;;;;5013626;28;20486;-66
2022/09/27 04:37:55;;;;;;;3.20;2.90;;;;;;;;;;5013285;28;20513;-66
2022/09/27 04:40:23;;;;;;;3.00;2.80;;;;;;;;;;5013625;28;20042;-67
2022/09/27 04:42:49;;;;;;;3.33;2.83;;;;;;;;;;5012730;28;20077;-68
2022/09/27 04:45:16;;;;;;;3.08;2.75;;;;;;;;;;5013406;28;20099;-67
2022/09/27 04:47:50;;;;;;;2.83;2.63;;;;;;;;;;5013283;28;20026;-67
2022/09/27 04:50:16;;;;;;;3.30;3.00;;;;;;;;;;5013700;28;20381;-67
2022/09/27 04:52:42;;;;;;;3.08;2.78;;;;;;;;;;5013417;28;20053;-66
2022/09/27 04:55:09;;;;;;;2.83;2.63;;;;;;;;;;5013309;28;20107;-67
2022/09/27 04:57:35;;;;;;;3.25;2.95;;;;;;;;;;5013107;28;20033;-67
2022/09/27 05:00:01;;;;;;;4.25;2.88;;;;;;;;;;5013074;28;20030;-66
2022/09/27 05:02:27;;;;;;;2.90;2.70;;;;;;;;;;5028354;28;20032;-66
2022/09/27 05:04:58;;;;;;;2.90;2.70;;;;;;;;;;5013054;28;20018;-67
2022/09/27 05:07:27;;;;;;;2.88;2.67;;;;;;;;;;5012978;28;20072;-66
2022/09/27 05:09:53;;;;;;;3.17;2.70;;;;;;;;;;5013150;28;20113;-67
2022/09/27 05:12:19;;;;;;;2.50;2.30;;;;;;;;;;5013194;28;20054;-67
2022/09/27 05:14:45;;;;;;;3.38;3.05;;;;;;;;;;5012908;28;20034;-66
2022/09/27 05:17:11;;;;;;;2.92;2.72;;;;;;;;;;5012755;28;20543;-67
2022/09/27 05:19:38;;;;;;;2.72;2.53;;;;;;;;;;5012829;28;20081;-66
2022/09/27 05:22:05;;;;;;;2.90;2.63;;;;;;;;;;5013114;28;20030;-67
2022/09/27 05:24:32;;;;;;;2.88;2.67;;;;;;;;;;5012673;28;20017;-66
2022/09/27 05:27:01;;;;;;;2.92;2.72;;;;;;;;;;5012739;28;20026;-67
2022/09/27 05:29:26;;;;;;;2.78;2.58;;;;;;;;;;5013038;28;20028;-66
2022/09/27 05:31:52;;;;;;;3.60;2.60;;;;;;;;;;5012827;28;20389;-66
2022/09/27 05:34:19;;;;;;;2.67;2.47;;;;;;;;;;5012930;28;20026;-66
2022/09/27 05:36:48;;;;;;;3.08;2.75;;;;;;;;;;5012359;28;20469;-67
2022/09/27 05:39:15;;;;;;;2.97;2.60;;;;;;;;;;5012932;28;20058;-66
2022/09/27 05:41:41;;;;;;;2.78;2.50;;;;;;;;;;5012778;28;20034;-66
2022/09/27 05:44:07;;;;;;;2.72;2.38;;;;;;;;;;5012727;28;20030;-66
2022/09/27 05:46:32;;;;;;;2.78;2.42;;;;;;;;;;5012793;28;20029;-66
2022/09/27 05:48:58;;;;;;;2.80;2.60;;;;;;;;;;5012342;28;20029;-67
2022/09/27 05:51:23;;;;;;;2.92;2.60;;;;;;;;;;5012626;28;20052;-66
2022/09/27 05:53:48;;;;;;;2.83;2.63;;;;;;;;;;5015156;28;20052;-67
2022/09/27 05:56:14;;;;;;;2.78;2.58;;;;;;;;;;5016602;28;20488;-66
2022/09/27 05:58:39;;;;;;;2.50;2.30;;;;;;;;;;5016717;28;20029;-67
2022/09/27 06:01:07;;;;;;;3.00;2.63;;;;;;;;;;5016402;28;20572;-67
2022/09/27 06:03:33;;;;;;;2.80;2.30;;;;;;;;;;5016252;28;20025;-67
2022/09/27 06:06:04;;;;;;;2.80;2.60;;;;;;;;;;5016272;28;20421;-67
2022/09/27 06:08:33;;;;;;;3.00;2.80;;;;;;;;;;5016535;28;20033;-67
2022/09/27 06:11:04;;;;;;;2.90;2.70;;;;;;;;;;5016101;28;20474;-66
2022/09/27 06:13:30;;;;;;;3.85;2.67;;;;;;;;;;5016326;28;20057;-66
2022/09/27 06:15:55;;;;;;;2.70;2.50;;;;;;;;;;5016269;28;20077;-66
2022/09/27 06:18:21;;;;;;;2.60;2.40;;;;;;;;;;5016122;28;20434;-66
2022/09/27 06:20:46;;;;;;;2.67;2.47;;;;;;;;;;5015933;28;20025;-66
2022/09/27 06:23:21;;;;;;;2.90;2.70;;;;;;;;;;5016194;28;20037;-67
2022/09/27 06:25:47;;;;;;;2.97;2.40;;;;;;;;;;5015891;28;20026;-67
2022/09/27 06:28:13;;;;;;;3.53;2.63;;;;;;;;;;5015823;28;20033;-67
2022/09/27 06:30:41;;;;;;;2.90;2.60;;;;;;;;;;5016026;28;20153;-67
2022/09/27 06:33:09;;;;;;;2.50;2.30;;;;;;;;;;5016039;28;20050;-67
2022/09/27 06:35:35;;;;;;;2.80;2.60;;;;;;;;;;5015957;28;20424;-67
2022/09/27 06:38:07;;;;;;;2.63;2.42;;;;;;;;;;5015432;28;20045;-67
2022/09/27 06:40:33;;;;;;;3.00;2.75;;;;;;;;;;5014529;28;20049;-68
2022/09/27 06:43:03;;;;;;;2.70;2.50;;;;;;;;;;5015920;28;20128;-67
2022/09/27 06:45:30;;;;;;;2.50;2.30;;;;;;;;;;5015582;28;20458;-67
2022/09/27 06:47:56;;;;;;;2.58;2.38;;;;;;;;;;5015382;28;20030;-67
2022/09/27 06:50:22;;;;;;;3.00;2.45;;;;;;;;;;5014135;28;20030;-67
2022/09/27 06:52:48;;;;;;;2.50;2.30;;;;;;;;;;5015336;28;20040;-67
2022/09/27 06:55:15;;;;;;;3.03;2.80;;;;;;;;;;5015621;28;20109;-67
2022/09/27 07:00:25;;;;;;;2.75;2.55;;;;;;;;;;5015571;28;20079;-67
2022/09/27 07:02:57;;;;;;;4.50;2.53;;;;;;;;;;5015332;28;20114;-67
2022/09/27 07:05:22;;;;;;;3.17;2.50;;;;;;;;;;5014181;28;20493;-66
2022/09/27 07:07:49;;;;;;;2.80;2.60;;;;;;;;;;5015104;28;20111;-67
2022/09/27 07:10:16;;;;;;;2.65;2.45;;;;;;;;;;5014949;28;20026;-66
2022/09/27 07:12:46;;;;;;;2.55;2.35;;;;;;;;;;5015172;28;20038;-66
2022/09/27 07:15:11;;;;;;;2.50;2.30;;;;;;;;;;5014867;28;20111;-66
2022/09/27 07:17:37;;;;;;;3.50;2.40;;;;;;;;;;5014743;28;20375;-66
2022/09/27 07:20:04;;;;;;;2.63;2.42;;;;;;;;;;5014791;28;20068;-66
2022/09/27 07:22:29;;;;;;;2.50;2.30;;;;;;;;;;5014951;28;20029;-66
2022/09/27 07:24:55;;;;;;;2.60;2.40;;;;;;;;;;5014794;28;20030;-66
2022/09/27 07:27:21;;;;;;;2.80;2.60;;;;;;;;;;5015061;28;20068;-66
2022/09/27 07:29:47;;;;;;;2.70;2.45;;;;;;;;;;5014589;28;20050;-66
2022/09/27 07:32:12;;;;;;;2.60;2.40;;;;;;;;;;5014555;28;20040;-66
2022/09/27 07:34:38;;;;;;;2.70;2.50;;;;;;;;;;5014792;28;20034;-66
2022/09/27 07:37:04;;;;;;;2.88;2.58;;;;;;;;;;5014211;28;20103;-67
2022/09/27 07:39:30;;;;;;;2.65;2.33;;;;;;;;;;5014519;28;20125;-66
2022/09/27 07:41:57;;;;;;;6.15;2.42;;;;;;;;;;5014360;28;20521;-67
2022/09/27 07:44:22;;;;;;;2.95;2.65;;;;;;;;;;5014413;28;20034;-66
2022/09/27 07:46:48;;;;;;;2.40;2.20;;;;;;;;;;5014347;28;20474;-67
2022/09/27 07:49:14;;;;;;;2.60;2.38;;;;;;;;;;5014222;28;20021;-67
2022/09/27 07:51:40;;;;;;;2.78;2.53;;;;;;;;;;5029460;28;20033;-66
2022/09/27 07:54:06;;;;;;;2.53;2.33;;;;;;;;;;5014485;28;20075;-66
2022/09/27 07:56:32;;;;;;;2.67;2.47;;;;;;;;;;5014264;28;20105;-66
2022/09/27 07:58:58;;;;;;;4.50;2.40;;;;;;;;;;5045800;28;20049;-66
2022/09/27 08:01:23;;;;;;;2.47;2.28;;;;;;;;;;5014046;28;20022;-66
2022/09/27 08:03:49;;;;;;;3.47;2.60;;;;;;;;;;5013860;28;20076;-66
2022/09/27 08:06:15;;;;;;;2.45;2.25;;;;;;;;;;5013918;28;20105;-66
2022/09/27 08:08:41;;;;;;;2.47;2.28;;;;;;;;;;5014129;28;20030;-66
2022/09/27 08:11:14;;;;;;;2.53;2.33;;;;;;;;;;5015767;28;20025;-66
2022/09/27 08:13:43;;;;;;;2.88;2.67;;;;;;;;;;5028486;28;20075;-67
2022/09/27 08:16:10;;;;;;;2.90;2.58;;;;;;;;;;5029267;28;20053;-66
2022/09/27 08:18:35;;;;;;;3.80;2.75;;;;;;;;;;5032440;28;20030;-66
2022/09/27 08:21:01;;;;;;;2.83;2.58;;;;;;;;;;5032303;28;20456;-65
2022/09/27 08:23:27;;;;;;;2.90;2.63;;;;;;;;;;5031100;28;20059;-66
2022/09/27 08:25:53;;;;;;;2.83;2.53;;;;;;;;;;5033304;28;20049;-66
2022/09/27 08:28:21;;;;;;;2.97;2.40;;;;;;;;;;5032033;28;20108;-66
2022/09/27 08:30:47;;;;;;;2.58;2.38;;;;;;;;;;5032024;28;20029;-65
2022/09/27 08:33:12;;;;;;;2.30;2.10;;;;;;;;;;5033600;28;20388;-66
2022/09/27 08:35:38;;;;;;;2.90;2.63;;;;;;;;;;5033020;28;20029;-65
2022/09/27 08:38:04;;;;;;;2.60;2.40;;;;;;;;;;5029317;28;20072;-66
2022/09/27 08:40:53;;;;;;;3.38;2.33;;;;;;;;;;5031607;28;20485;-66
2022/09/27 08:43:43;;;;;;;2.40;2.20;;;;;;;;;;5031410;28;20018;-66
2022/09/27 08:46:27;;;;;;;2.40;2.20;;;;;;;;;;5030412;28;20041;-68
2022/09/27 08:49:03;;;;;;;2.42;2.22;;;;;;;;;;5024783;28;20427;-69
2022/09/27 08:51:31;;;;;;;2.42;2.22;;;;;;;;;;5027068;28;20496;-68
2022/09/27 08:54:13;;;;;;;2.50;2.22;;;;;;;;;;5032429;28;20035;-67
2022/09/27 08:56:38;;;;;;;2.40;2.20;;;;;;;;;;5028829;28;20481;-68
2022/09/27 08:59:13;;;;;;;2.50;2.30;;;;;;;;;;5032998;28;20083;-72
2022/09/27 09:01:40;;;;;;;2.60;2.40;;;;;;;;;;5031672;28;20385;-66
2022/09/27 09:04:08;;;;;;;2.83;2.33;;;;;;;;;;5027042;28;20031;-73
2022/09/27 09:07:00;;;;;;;4.10;2.65;;;;;;;;;;5032592;28;20435;-66
2022/09/27 09:09:37;;;;;;;2.65;2.45;;;;;;;;;;5033037;28;20025;-67
2022/09/27 09:15:26;;;;;;;2.85;2.28;;;;;;;;;;5028163;28;20091;-66
2022/09/27 09:17:58;;;;;;;2.50;2.30;;;;;;;;;;5030200;28;20151;-67
2022/09/27 09:20:46;;;;;;;2.92;2.72;;;;;;;;;;5031112;28;20028;-70
2022/09/27 09:23:24;;;;;;;2.60;2.40;;;;;;;;;;5031068;28;20112;-71
2022/09/27 09:26:05;;;;;;;2.72;2.53;;;;;;;;;;5030692;28;20097;-67
2022/09/27 09:28:36;;;;;;;3.08;2.80;;;;;;;;;;5030622;28;20037;-73
2022/09/27 09:31:04;;;;;;;6.00;3.20;;;;;;;;;;5025395;28;20025;-69
2022/09/27 09:33:52;;;;;;;3.38;3.08;;;;;;;;;;5028003;28;20025;-66
2022/09/27 09:36:39;;;;;;;3.08;2.78;;;;;;;;;;5030062;28;20026;-70
2022/09/27 09:39:32;;;;;;;3.25;2.95;;;;;;;;;;5031000;28;20056;-67
2022/09/27 09:42:39;;;;;;;3.30;2.90;;;;;;;;;;5030488;28;20078;-70
2022/09/27 09:45:18;;;;;;;3.72;2.60;;;;;;;;;;5030271;28;20034;-71
2022/09/27 09:47:51;;;;;;;5.45;3.40;;;;;;;;;;5030734;28;20507;-71
2022/09/27 09:50:25;;;;;;;3.30;3.00;;;;;;;;;;5030537;28;20061;-69
2022/09/27 09:52:58;;;;;;;3.30;3.00;;;;;;;;;;5027676;28;20045;-70
2022/09/27 09:55:29;;;;;;;3.22;2.95;;;;;;;;;;5030573;28;20033;-70
2022/09/27 09:58:21;;;;;;;3.15;2.85;;;;;;;;;;5030365;28;20038;-66
2022/09/27 10:00:48;;;;;;;4.88;3.10;;;;;;;;;;5030290;28;20034;-70
2022/09/27 10:03:13;;;;;;;3.92;3.00;;;;;;;;;;5030758;28;20032;-70
2022/09/27 10:05:43;;;;;;;3.47;3.15;;;;;;;;;;5030540;28;20029;-70
2022/09/27 10:08:16;;;;;;;3.42;3.13;;;;;;;;;;5029000;28;20476;-70
2022/09/27 10:10:42;;;;;;;4.13;3.60;;;;;;;;;;5030823;28;20034;-67
2022/09/27 10:13:14;;;;;;;3.97;3.58;;;;;;;;;;5030550;28;20627;-66
2022/09/27 10:15:40;;;;;;;3.60;3.30;;;;;;;;;;5030613;28;20086;-71
2022/09/27 10:18:15;;;;;;;3.50;3.25;;;;;;;;;;5030513;28;20061;-72
2022/09/27 10:21:18;;;;;;;3.47;3.17;;;;;;;;;;5030371;28;20036;-73
2022/09/27 10:24:07;;;;;;;5.00;3.40;;;;;;;;;;5029603;28;20045;-71
2022/09/27 10:26:34;;;;;;;4.07;3.67;;;;;;;;;;5030167;28;20109;-68
2022/09/27 10:29:21;;;;;;;4.60;3.53;;;;;;;;;;5030674;28;20427;-72
2022/09/27 10:31:49;;;;;;;3.75;3.45;;;;;;;;;;5030237;28;20100;-71
2022/09/27 10:34:33;;;;;;;7.07;3.40;;;;;;;;;;5030304;28;20029;-69
2022/09/27 10:37:22;;;;;;;3.78;3.40;;;;;;;;;;5029846;28;20084;-70
2022/09/27 10:39:50;;;;;;;4.17;3.77;;;;;;;;;;5027725;28;20033;-69
2022/09/27 10:42:34;;;;;;;3.70;3.40;;;;;;;;;;5033773;28;20109;-66
2022/09/27 10:45:21;;;;;;;3.75;3.45;;;;;;;;;;5033771;28;20553;-70
2022/09/27 10:47:46;;;;;;;4.53;3.60;;;;;;;;;;5033928;28;20025;-66
2022/09/27 10:50:22;;;;;;;5.35;4.00;;;;;;;;;;5033929;28;20040;-66
2022/09/27 10:52:48;;;;;;;3.97;3.58;;;;;;;;;;5033647;28;20026;-71
2022/09/27 10:55:21;;;;;;;4.80;4.10;;;;;;;;;;5033831;28;20530;-66
2022/09/27 10:57:49;;;;;;;4.40;3.97;;;;;;;;;;5054440;28;20108;-68
2022/09/27 11:00:32;;;;;;;4.90;4.40;;;;;;;;;;5031752;28;20362;-68
2022/09/27 11:03:05;;;;;;;4.63;4.13;;;;;;;;;;5028990;28;20034;-70
2022/09/27 11:05:37;;;;;;;5.60;4.18;;;;;;;;;;5012991;28;20071;-68
2022/09/27 11:08:30;;;;;;;4.40;4.00;;;;;;;;;;5011962;28;20029;-68
2022/09/27 11:11:23;;;;;;;4.90;4.30;;;;;;;;;;5012307;28;20563;-67
2022/09/27 11:14:16;;;;;;;4.22;3.83;;;;;;;;;;5011785;28;20069;-67
2022/09/27 11:17:00;;;;;;;5.82;4.80;;;;;;;;;;5040162;28;20036;-69
2022/09/27 11:19:34;;;;;;;6.30;4.70;;;;;;;;;;5013907;28;20084;-67
2022/09/27 11:22:21;;;;;;;5.80;4.30;;;;;;;;;;5019669;28;20029;-69
2022/09/27 11:25:16;;;;;;;4.95;4.50;;;;;;;;;;5027924;28;20543;-66
2022/09/27 11:28:00;;;;;;;5.00;4.40;;;;;;;;;;5032325;28;20028;-63
2022/09/27 11:30:34;;;;;;;5.28;4.75;;;;;;;;;;5032900;28;20037;-68
2022/09/27 11:33:09;;;;;;;6.82;5.13;;;;;;;;;;5033104;28;20025;-68
2022/09/27 11:35:52;;;;;;;5.65;4.95;;;;;;;;;;5029936;28;20033;-69
2022/09/27 11:38:27;;;;;;;6.45;5.78;;;;;;;;;;5030944;28;20114;-69
2022/09/27 11:40:52;;;;;;;7.15;5.57;;;;;;;;;;5032650;28;20607;-69
2022/09/27 11:43:26;;;;;;;6.97;5.90;;;;;;;;;;5032766;28;20132;-69
2022/09/27 11:46:10;;;;;;;6.72;6.03;;;;;;;;;;5029111;28;20034;-67
2022/09/27 11:48:38;;;;;;;8.55;6.28;;;;;;;;;;5026065;28;20038;-70
2022/09/27 11:51:25;;;;;;;8.18;6.65;;;;;;;;;;5012862;28;20026;-68
2022/09/27 11:54:12;;;;;;;9.82;8.02;;;;;;;;;;5025268;28;20080;-72
2022/09/27 11:56:46;;;;;;;9.40;7.55;;;;;;;;;;5028691;28;20132;-73
2022/09/27 11:59:37;;;;;;;9.50;7.35;;;;;;;;;;5031975;28;20057;-70
2022/09/27 12:02:28;;;;;;;8.00;6.68;;;;;;;;;;5028055;28;20037;-68
2022/09/27 12:05:10;;;;;;;8.93;7.38;;;;;;;;;;5032570;28;20056;-69
2022/09/27 12:07:49;;;;;;;8.63;7.45;;;;;;;;;;5030131;28;20527;-65
2022/09/27 12:10:17;;;;;;;10.65;8.02;;;;;;;;;;5029957;28;20485;-74
2022/09/27 12:12:55;;;;;;;8.95;7.50;;;;;;;;;;5049810;28;20034;-68
2022/09/27 12:15:32;;;;;;;12.68;7.32;;;;;;;;;;5031701;28;20455;-71
2022/09/27 12:18:26;;;;;;;9.35;6.97;;;;;;;;;;5034260;28;20089;-66
2022/09/27 12:20:52;;;;;;;8.80;6.90;;;;;;;;;;5033367;28;20060;-75
2022/09/27 12:23:30;;;;;;;7.57;6.63;;;;;;;;;;5033452;28;20032;-71
2022/09/27 12:26:03;;;;;;;7.50;6.70;;;;;;;;;;5030024;28;20432;-71
2022/09/27 12:28:38;;;;;;;8.60;6.88;;;;;;;;;;5030812;28;20381;-74
2022/09/27 12:31:14;;;;;;;9.43;6.80;;;;;;;;;;5032183;28;20482;-72
2022/09/27 12:34:12;;;;;;;8.10;6.50;;;;;;;;;;5031551;28;20022;-76
2022/09/27 12:36:43;;;;;;;9.80;7.32;;;;;;;;;;5031178;28;20038;-71
2022/09/27 12:39:38;;;;;;;10.05;7.85;;;;;;;;;;5031680;28;20033;-70
2022/09/27 12:42:15;;;;;;;9.07;6.75;;;;;;;;;;5029854;28;20037;-74
2022/09/27 12:44:41;;;;;;;10.15;7.55;;;;;;;;;;5030688;28;20108;-66
2022/09/27 12:47:18;;;;;;;9.60;7.85;;;;;;;;;;5013984;28;20029;-65
2022/09/27 12:50:10;;;;;;;9.48;7.22;;;;;;;;;;5015084;28;20021;-72
2022/09/27 12:52:44;;;;;;;8.10;7.28;;;;;;;;;;5031557;28;20683;-72
2022/09/27 12:56:00;;;;;;;8.68;7.05;;;;;;;;;;5031765;28;20045;-69
2022/09/27 12:58:50;;;;;;;10.93;6.47;;;;;;;;;;5029750;28;20112;-64
2022/09/27 13:02:02;;;;;;;9.32;6.90;;;;;;;;;;5031468;28;20022;-67
2022/09/27 13:04:47;;;;;;;9.65;7.30;;;;;;;;;;5031313;28;20445;-71
2022/09/27 13:07:21;;;;;;;10.77;7.25;;;;;;;;;;5022842;28;20366;-73
2022/09/27 13:10:02;;;;;;;7.60;6.28;;;;;;;;;;5029491;28;20535;-73
2022/09/27 13:12:30;;;;;;;7.75;6.82;;;;;;;;;;5031414;28;20029;-76
2022/09/27 13:14:58;;;;;;;7.07;6.18;;;;;;;;;;5031567;28;20033;-64
2022/09/27 13:17:47;;;;;;;6.82;6.13;;;;;;;;;;5031163;28;20463;-71
2022/09/27 13:20:41;;;;;;;8.73;6.32;;;;;;;;;;5031442;28;20029;-73
2022/09/27 13:23:18;;;;;;;9.00;6.53;;;;;;;;;;5026948;28;20459;-70
2022/09/27 13:25:47;;;;;;;6.97;6.22;;;;;;;;;;5027273;28;20112;-68
2022/09/27 13:28:35;;;;;;;9.13;6.72;;;;;;;;;;5030997;28;20076;-67
2022/09/27 13:31:01;;;;;;;9.13;6.50;;;;;;;;;;5031104;28;20381;-64
2022/09/27 13:33:45;;;;;;;8.82;6.32;;;;;;;;;;5028106;28;20497;-64
2022/09/27 13:36:24;;;;;;;6.75;6.05;;;;;;;;;;5029409;28;20408;-66
2022/09/27 13:39:04;;;;;;;9.05;6.60;;;;;;;;;;5028607;28;20053;-71
2022/09/27 13:41:42;;;;;;;7.35;6.30;;;;;;;;;;5029070;28;20394;-68
2022/09/27 13:44:36;;;;;;;9.48;6.25;;;;;;;;;;5030726;28;20030;-70
2022/09/27 13:47:12;;;;;;;6.97;6.30;;;;;;;;;;5028799;28;20477;-65
2022/09/27 13:49:45;;;;;;;7.25;6.50;;;;;;;;;;5029224;28;20086;-65
2022/09/27 13:52:24;;;;;;;7.03;6.10;;;;;;;;;;5029721;28;20052;-70
2022/09/27 13:54:57;;;;;;;8.35;6.35;;;;;;;;;;5030439;28;20500;-65
2022/09/27 13:57:41;;;;;;;8.13;6.10;;;;;;;;;;5030525;28;20489;-65
2022/09/27 14:00:44;;;;;;;7.90;6.30;;;;;;;;;;5030849;28;20346;-64
2022/09/27 14:03:14;;;;;;;7.30;6.18;;;;;;;;;;5027671;28;20040;-69
2022/09/27 14:05:58;;;;;;;7.07;6.25;;;;;;;;;;5030114;28;20716;-63
2022/09/27 14:08:34;;;;;;;9.80;6.80;;;;;;;;;;5030657;28;20061;-64
2022/09/27 14:11:02;;;;;;;10.02;6.35;;;;;;;;;;5030392;28;20028;-64
2022/09/27 14:13:30;;;;;;;9.43;6.28;;;;;;;;;;5028039;28;20042;-70
2022/09/27 14:16:01;;;;;;;8.55;5.75;;;;;;;;;;5015040;28;20034;-63
2022/09/27 14:18:28;;;;;;;7.00;6.30;;;;;;;;;;5014740;28;20026;-63
2022/09/27 14:21:08;;;;;;;6.97;6.10;;;;;;;;;;5014850;28;20045;-65
2022/09/27 14:23:33;;;;;;;6.87;5.87;;;;;;;;;;5014515;28;20108;-63
2022/09/27 14:25:59;;;;;;;10.32;6.03;;;;;;;;;;5014599;28;20354;-64
2022/09/27 14:28:29;;;;;;;8.10;6.18;;;;;;;;;;5014424;28;20034;-69
2022/09/27 14:31:16;;;;;;;6.80;6.10;;;;;;;;;;5014379;28;20030;-70
2022/09/27 14:33:42;;;;;;;8.23;5.75;;;;;;;;;;5014753;28;20523;-73
2022/09/27 14:39:31;;;;;;;6.32;5.63;;;;;;;;;;5034085;28;20068;-65
2022/09/27 14:41:59;;;;;;;6.43;5.40;;;;;;;;;;5032456;28;20152;-64
2022/09/27 14:44:26;;;;;;;6.03;5.40;;;;;;;;;;5014964;28;20037;-64
2022/09/27 14:47:31;;;;;;;7.70;5.30;;;;;;;;;;5014284;28;20497;-67
2022/09/27 14:50:00;;;;;;;5.85;5.13;;;;;;;;;;5011764;28;20049;-70
2022/09/27 14:52:34;;;;;;;7.55;4.97;;;;;;;;;;5011242;28;20033;-73
2022/09/27 14:55:01;;;;;;;5.80;4.28;;;;;;;;;;5013138;28;20038;-73
2022/09/27 14:57:31;;;;;;;5.82;5.18;;;;;;;;;;5013648;28;20036;-69
2022/09/27 14:59:59;;;;;;;8.68;4.80;;;;;;;;;;5013779;28;20030;-64
2022/09/27 15:02:25;;;;;;;7.28;4.95;;;;;;;;;;5013793;28;20022;-64
2022/09/27 15:04:52;;;;;;;6.13;4.72;;;;;;;;;;5013954;28;20369;-63
2022/09/27 15:07:21;;;;;;;9.30;4.72;;;;;;;;;;5013937;28;20041;-65
2022/09/27 15:09:48;;;;;;;6.63;4.82;;;;;;;;;;5023153;28;20049;-69
2022/09/27 15:12:23;;;;;;;6.22;4.32;;;;;;;;;;5032465;28;20086;-67
2022/09/27 15:14:49;;;;;;;5.90;4.55;;;;;;;;;;5013664;28;20017;-69
2022/09/27 15:17:19;;;;;;;7.60;4.57;;;;;;;;;;5013661;28;20044;-68
2022/09/27 15:20:23;;;;;;;4.93;4.03;;;;;;;;;;5013369;28;20029;-68
2022/09/27 15:22:49;;;;;;;8.30;5.18;;;;;;;;;;5013276;28;20516;-64
2022/09/27 15:25:17;;;;;;;7.03;4.60;;;;;;;;;;5012758;28;20049;-70
2022/09/27 15:27:52;;;;;;;4.50;4.07;;;;;;;;;;5013456;28;20041;-68
2022/09/27 15:30:24;;;;;;;6.40;3.92;;;;;;;;;;5013199;28;20025;-68